Time;durP1;ratioP1;P1;durP2;ratioP2;P2;SDS_P1;SDS_P2;PMS_P1;PMS_P2;Temp;Humidity;BMP_temperature;BMP_pressure;BME280_temperature;BME280_humidity;BME280_pressure;Samples;Min_cycle;Max_cycle;Signal;HPM_P1;HPM_P2
2022/05/30 00:01:17;;;;;;;2.40;2.08;;;14.20;60.50;;;;;;5050693;28;20204;-59
2022/05/30 00:03:48;;;;;;;2.30;1.80;;;14.20;60.50;;;;;;5050307;28;20659;-60
2022/05/30 00:06:21;;;;;;;2.38;1.88;;;14.20;60.50;;;;;;5050408;28;20207;-59
2022/05/30 00:08:53;;;;;;;2.33;2.03;;;14.20;60.60;;;;;;5051155;28;20701;-59
2022/05/30 00:11:25;;;;;;;2.10;1.70;;;14.20;60.60;;;;;;5049703;28;20249;-58
2022/05/30 00:13:55;;;;;;;2.75;1.92;;;14.30;60.70;;;;;;5050587;28;20568;-59
2022/05/30 00:16:26;;;;;;;1.83;1.67;;;14.30;60.80;;;;;;5048966;28;20738;-59
2022/05/30 00:18:57;;;;;;;3.65;2.15;;;14.30;60.80;;;;;;5048384;28;20222;-59
2022/05/30 00:21:28;;;;;;;1.88;1.75;;;14.30;60.80;;;;;;5048438;28;20195;-59
2022/05/30 00:24:01;;;;;;;2.80;2.13;;;14.30;60.80;;;;;;5049578;28;20195;-59
2022/05/30 00:26:31;;;;;;;2.08;1.70;;;14.30;60.70;;;;;;5050326;28;20215;-61
2022/05/30 00:29:02;;;;;;;1.92;1.77;;;14.40;60.80;;;;;;5050831;28;20234;-59
2022/05/30 00:31:33;;;;;;;2.28;2.03;;;14.40;61.00;;;;;;5049617;28;20305;-60
2022/05/30 00:34:04;;;;;;;2.13;1.45;;;14.40;61.10;;;;;;5049948;28;20196;-59
2022/05/30 00:36:34;;;;;;;2.35;1.77;;;14.40;61.10;;;;;;5050078;28;20609;-60
2022/05/30 00:39:07;;;;;;;2.40;1.88;;;14.50;61.10;;;;;;5047538;28;20196;-60
2022/05/30 00:41:37;;;;;;;2.45;2.00;;;14.50;61.00;;;;;;5050192;28;20214;-59
2022/05/30 00:44:08;;;;;;;1.92;1.80;;;14.50;61.00;;;;;;5049034;28;20249;-59
2022/05/30 00:46:39;;;;;;;2.35;2.15;;;14.50;61.00;;;;;;5049345;28;20269;-59
2022/05/30 00:49:11;;;;;;;2.25;1.70;;;14.50;61.00;;;;;;5049710;28;20284;-58
2022/05/30 00:51:47;;;;;;;1.90;1.70;;;14.60;61.20;;;;;;5048876;28;20306;-58
2022/05/30 00:54:23;;;;;;;1.80;1.60;;;14.60;61.20;;;;;;5049578;28;20256;-60
2022/05/30 00:56:57;;;;;;;1.73;1.63;;;14.60;61.20;;;;;;5049088;28;20796;-58
2022/05/30 00:59:27;;;;;;;1.70;1.42;;;14.60;61.10;;;;;;5050054;28;20235;-59
2022/05/30 01:01:58;;;;;;;2.13;1.80;;;14.60;61.30;;;;;;5049798;28;20352;-60
2022/05/30 01:07:15;;;;;;;2.95;1.95;;;14.70;61.40;;;;;;5049835;28;20230;-60
2022/05/30 01:09:50;;;;;;;2.75;2.45;;;14.70;61.30;;;;;;5050027;28;20558;-59
2022/05/30 01:12:35;;;;;;;1.92;1.73;;;14.80;61.40;;;;;;5049056;28;20214;-58
2022/05/30 01:15:06;;;;;;;2.45;1.75;;;14.80;61.30;;;;;;5048599;28;20215;-59
2022/05/30 01:17:37;;;;;;;2.35;1.77;;;14.80;61.20;;;;;;5049243;28;20187;-60
2022/05/30 01:20:16;;;;;;;2.03;1.83;;;14.80;61.10;;;;;;5050105;28;20196;-59
2022/05/30 01:23:20;;;;;;;1.83;1.50;;;14.80;61.10;;;;;;5049158;28;20215;-59
2022/05/30 01:26:19;;;;;;;1.77;1.52;;;14.80;61.00;;;;;;5033246;28;20691;-60
2022/05/30 01:28:58;;;;;;;1.45;1.35;;;14.90;61.00;;;;;;5048486;28;20191;-59
2022/05/30 01:31:29;;;;;;;2.03;1.67;;;14.90;61.00;;;;;;5049814;28;20702;-60
2022/05/30 01:33:59;;;;;;;2.47;1.58;;;14.90;61.10;;;;;;5049146;28;20386;-59
2022/05/30 01:36:32;;;;;;;2.45;1.85;;;14.90;61.10;;;;;;5049001;28;20215;-59
2022/05/30 01:39:03;;;;;;;1.73;1.63;;;15.00;61.20;;;;;;5048619;28;20192;-60
2022/05/30 01:41:34;;;;;;;1.75;1.45;;;15.00;61.20;;;;;;5049290;28;20282;-60
2022/05/30 01:44:06;;;;;;;1.52;1.42;;;15.00;61.20;;;;;;5048584;28;20747;-60
2022/05/30 01:46:37;;;;;;;2.00;1.80;;;15.00;61.20;;;;;;5048674;28;20216;-60
2022/05/30 01:49:08;;;;;;;1.55;1.45;;;15.00;61.10;;;;;;5048625;28;20253;-60
2022/05/30 01:51:38;;;;;;;2.05;1.40;;;15.00;61.20;;;;;;5048830;28;20638;-60
2022/05/30 01:54:09;;;;;;;1.70;1.40;;;15.00;61.10;;;;;;5049780;28;20489;-60
2022/05/30 01:56:39;;;;;;;2.13;1.77;;;15.10;61.20;;;;;;5043327;28;20293;-60
2022/05/30 01:59:12;;;;;;;2.15;1.65;;;15.10;61.20;;;;;;5012067;28;20196;-60
2022/05/30 02:01:44;;;;;;;2.05;1.50;;;15.10;61.20;;;;;;5012400;28;20275;-59
2022/05/30 02:04:15;;;;;;;1.88;1.42;;;15.10;61.10;;;;;;5012028;28;20193;-59
2022/05/30 02:06:46;;;;;;;2.28;1.60;;;15.10;61.30;;;;;;5011568;28;20217;-59
2022/05/30 02:09:17;;;;;;;1.55;1.45;;;15.10;61.40;;;;;;5012044;28;20200;-60
2022/05/30 02:11:47;;;;;;;1.63;1.40;;;15.10;61.30;;;;;;5012361;28;20298;-59
2022/05/30 02:14:20;;;;;;;1.48;1.38;;;15.20;61.40;;;;;;5030836;28;20254;-59
2022/05/30 02:17:04;;;;;;;1.70;1.60;;;15.20;61.30;;;;;;5032140;28;20266;-58
2022/05/30 02:19:36;;;;;;;1.65;1.50;;;15.20;61.30;;;;;;5031390;28;20203;-58
2022/05/30 02:22:08;;;;;;;1.70;1.60;;;15.20;61.30;;;;;;5031151;28;20265;-58
2022/05/30 02:24:39;;;;;;;1.80;1.40;;;15.20;61.40;;;;;;5031021;28;20200;-60
2022/05/30 02:27:10;;;;;;;1.40;1.30;;;15.20;61.40;;;;;;5030639;28;20216;-59
2022/05/30 02:29:43;;;;;;;1.75;1.33;;;15.30;61.50;;;;;;5026477;28;20196;-59
2022/05/30 02:32:13;;;;;;;1.40;1.30;;;15.30;61.50;;;;;;5031129;28;20215;-60
2022/05/30 02:37:31;;;;;;;1.83;1.50;;;15.30;61.40;;;;;;5014276;28;20196;-59
2022/05/30 02:40:02;;;;;;;1.20;1.10;;;15.30;61.30;;;;;;5011839;28;20197;-60
2022/05/30 02:42:32;;;;;;;1.92;1.52;;;15.30;61.30;;;;;;5013665;28;20267;-59
2022/05/30 02:45:05;;;;;;;1.42;1.33;;;15.30;61.30;;;;;;5030878;28;20196;-59
2022/05/30 02:47:36;;;;;;;1.30;1.17;;;15.30;61.20;;;;;;5030800;28;20200;-59
2022/05/30 02:50:06;;;;;;;2.22;1.52;;;15.30;61.20;;;;;;5030733;28;20258;-59
2022/05/30 02:52:37;;;;;;;1.60;1.50;;;15.40;61.10;;;;;;5030521;28;20223;-60
2022/05/30 02:55:08;;;;;;;1.83;1.40;;;15.40;61.10;;;;;;5030674;28;20262;-60
2022/05/30 02:57:39;;;;;;;1.50;1.40;;;15.40;61.10;;;;;;5030348;28;20208;-59
2022/05/30 03:00:17;;;;;;;1.70;1.55;;;15.40;61.10;;;;;;5030969;28;20196;-59
2022/05/30 03:02:47;;;;;;;1.73;1.17;;;15.40;61.10;;;;;;5031132;28;20207;-59
2022/05/30 03:05:18;;;;;;;1.70;1.50;;;15.40;61.10;;;;;;5031335;28;20255;-59
2022/05/30 03:07:48;;;;;;;1.58;1.48;;;15.40;61.20;;;;;;5031275;28;20191;-59
2022/05/30 03:10:19;;;;;;;1.52;1.42;;;15.40;61.20;;;;;;5030971;28;20246;-59
2022/05/30 03:12:50;;;;;;;1.63;1.38;;;15.50;61.20;;;;;;5030364;28;20255;-60
2022/05/30 03:15:22;;;;;;;1.70;1.40;;;15.40;61.10;;;;;;5030767;28;20249;-59
2022/05/30 03:17:53;;;;;;;1.35;1.20;;;15.50;61.20;;;;;;5033861;28;20710;-60
2022/05/30 03:20:23;;;;;;;1.50;1.30;;;15.50;61.20;;;;;;5018912;28;20251;-61
2022/05/30 03:22:54;;;;;;;2.13;1.60;;;15.50;61.10;;;;;;5015311;28;20286;-60
2022/05/30 03:25:24;;;;;;;1.70;1.55;;;15.50;61.00;;;;;;5014889;28;20221;-60
2022/05/30 03:27:55;;;;;;;1.80;1.60;;;15.50;61.10;;;;;;5016034;28;20707;-60
2022/05/30 03:30:28;;;;;;;1.55;1.45;;;15.50;61.10;;;;;;5050243;28;20223;-61
2022/05/30 03:32:58;;;;;;;1.58;1.40;;;15.50;61.00;;;;;;5051567;28;20273;-61
2022/05/30 03:35:29;;;;;;;1.60;1.20;;;15.50;60.90;;;;;;5050750;28;20764;-60
2022/05/30 03:38:00;;;;;;;1.40;1.30;;;15.50;61.00;;;;;;5051685;28;20213;-60
2022/05/30 03:40:31;;;;;;;1.40;1.30;;;15.50;60.90;;;;;;5051172;28;20685;-59
2022/05/30 03:43:01;;;;;;;1.90;1.50;;;15.50;60.90;;;;;;5051099;28;20253;-60
2022/05/30 03:45:34;;;;;;;1.75;1.42;;;15.50;61.10;;;;;;5050833;28;20242;-57
2022/05/30 03:48:05;;;;;;;2.35;1.25;;;15.50;61.10;;;;;;5050941;28;20603;-59
2022/05/30 03:50:36;;;;;;;2.58;1.50;;;15.60;61.70;;;;;;5051053;28;20203;-59
2022/05/30 03:53:07;;;;;;;1.58;1.13;;;15.60;62.10;;;;;;5051409;28;20219;-59
2022/05/30 03:55:39;;;;;;;1.50;1.35;;;15.60;62.00;;;;;;5050740;28;20675;-60
2022/05/30 03:58:11;;;;;;;2.30;1.52;;;15.60;62.00;;;;;;5051279;28;20211;-59
2022/05/30 04:00:44;;;;;;;1.52;1.38;;;15.60;61.90;;;;;;5050531;28;20271;-60
2022/05/30 04:03:15;;;;;;;1.60;1.50;;;15.60;61.80;;;;;;5051282;28;20196;-60
2022/05/30 04:05:46;;;;;;;1.83;1.45;;;15.60;61.80;;;;;;5050888;28;20219;-60
2022/05/30 04:08:17;;;;;;;1.45;1.25;;;15.70;61.80;;;;;;5050770;28;20199;-59
2022/05/30 04:10:47;;;;;;;1.88;1.35;;;15.60;61.70;;;;;;5051095;28;20196;-59
2022/05/30 04:13:18;;;;;;;1.38;1.02;;;15.60;61.60;;;;;;5050012;28;20227;-58
2022/05/30 04:15:50;;;;;;;1.40;1.30;;;15.60;61.60;;;;;;5050745;28;20226;-59
2022/05/30 04:18:21;;;;;;;1.70;1.30;;;15.70;61.60;;;;;;5049315;28;20219;-60
2022/05/30 04:20:51;;;;;;;2.25;1.40;;;15.70;61.50;;;;;;5048703;28;20199;-59
2022/05/30 04:23:22;;;;;;;1.30;1.20;;;15.70;61.50;;;;;;5049653;28;20277;-61
2022/05/30 04:25:53;;;;;;;1.27;1.17;;;15.70;61.40;;;;;;5050512;28;20706;-60
2022/05/30 04:28:23;;;;;;;1.70;1.40;;;15.70;61.40;;;;;;5049560;28;20249;-60
2022/05/30 04:30:55;;;;;;;1.33;1.17;;;15.70;61.40;;;;;;5049879;28;20231;-60
2022/05/30 04:33:27;;;;;;;1.38;1.27;;;15.70;61.40;;;;;;5050701;28;20284;-60
2022/05/30 04:35:57;;;;;;;1.65;1.33;;;15.70;61.30;;;;;;5050371;28;20223;-60
2022/05/30 04:38:28;;;;;;;1.67;1.20;;;15.70;61.30;;;;;;5049365;28;20269;-59
2022/05/30 04:40:59;;;;;;;2.15;1.50;;;15.80;61.40;;;;;;5046990;28;20254;-59
2022/05/30 04:43:29;;;;;;;1.50;1.40;;;15.70;61.40;;;;;;5049881;28;20709;-60
2022/05/30 04:46:16;;;;;;;1.40;1.30;;;15.70;61.30;;;;;;5049484;28;20682;-60
2022/05/30 04:48:47;;;;;;;1.70;1.30;;;15.70;61.30;;;;;;5049599;28;20195;-60
2022/05/30 04:51:18;;;;;;;2.08;1.35;;;15.70;61.30;;;;;;5049693;28;20196;-60
2022/05/30 04:53:48;;;;;;;2.00;1.23;;;15.70;61.30;;;;;;5049750;28;20308;-59
2022/05/30 04:56:21;;;;;;;1.55;1.45;;;15.70;61.30;;;;;;5048795;28;20868;-59
2022/05/30 04:58:52;;;;;;;1.30;1.20;;;15.70;61.30;;;;;;5049788;28;20191;-59
2022/05/30 05:01:27;;;;;;;1.38;1.27;;;15.70;61.30;;;;;;5049223;28;20644;-59
2022/05/30 05:03:57;;;;;;;1.45;1.33;;;15.70;61.30;;;;;;5049740;28;20286;-59
2022/05/30 05:06:28;;;;;;;1.40;1.30;;;15.70;61.20;;;;;;5049383;28;20218;-59
2022/05/30 05:09:06;;;;;;;1.45;1.35;;;15.70;61.20;;;;;;5049179;28;20191;-59
2022/05/30 05:11:38;;;;;;;1.80;1.30;;;15.70;61.20;;;;;;5049337;28;20200;-59
2022/05/30 05:14:08;;;;;;;1.45;1.27;;;15.80;61.20;;;;;;5049887;28;20259;-59
2022/05/30 05:16:41;;;;;;;1.45;1.35;;;15.70;61.20;;;;;;5049992;28;20215;-60
2022/05/30 05:19:12;;;;;;;1.30;1.20;;;15.80;61.30;;;;;;5049651;28;20188;-59
2022/05/30 05:21:45;;;;;;;1.95;1.30;;;15.70;61.20;;;;;;5050185;28;20289;-59
2022/05/30 05:24:17;;;;;;;1.52;1.42;;;15.80;61.20;;;;;;5049083;28;20278;-59
2022/05/30 05:26:49;;;;;;;1.75;1.50;;;15.80;61.20;;;;;;5046836;28;20253;-58
2022/05/30 05:29:20;;;;;;;1.48;1.38;;;15.70;61.10;;;;;;5049837;28;20277;-58
2022/05/30 05:31:53;;;;;;;1.35;1.15;;;15.70;61.10;;;;;;5050257;28;20262;-59
2022/05/30 05:34:24;;;;;;;1.85;1.30;;;15.70;61.20;;;;;;5047528;28;20215;-59
2022/05/30 05:36:54;;;;;;;1.45;1.10;;;15.70;61.20;;;;;;5047531;28;20308;-58
2022/05/30 05:39:25;;;;;;;1.63;1.52;;;15.80;61.20;;;;;;5048166;28;20249;-58
2022/05/30 05:41:55;;;;;;;1.40;1.30;;;15.70;61.20;;;;;;5048721;28;20191;-59
2022/05/30 05:44:26;;;;;;;1.70;1.38;;;15.80;61.20;;;;;;5049198;28;20249;-59
2022/05/30 05:47:02;;;;;;;1.20;1.10;;;15.70;61.20;;;;;;5048649;28;20215;-59
2022/05/30 05:49:32;;;;;;;1.90;1.27;;;15.70;61.20;;;;;;5048354;28;20192;-59
2022/05/30 05:52:03;;;;;;;1.55;1.20;;;15.80;61.20;;;;;;5048366;28;20245;-59
2022/05/30 05:54:33;;;;;;;1.42;1.33;;;15.70;61.20;;;;;;5048237;28;20310;-59
2022/05/30 05:57:04;;;;;;;1.30;1.20;;;15.70;61.20;;;;;;5048863;28;20440;-59
2022/05/30 05:59:35;;;;;;;1.85;1.40;;;15.80;61.20;;;;;;5048215;28;20196;-58
2022/05/30 06:02:08;;;;;;;1.38;1.27;;;15.80;61.30;;;;;;5047938;28;20191;-59
2022/05/30 06:04:40;;;;;;;1.55;1.40;;;15.80;61.20;;;;;;5048423;28;20261;-59
2022/05/30 06:07:10;;;;;;;1.58;1.30;;;15.80;61.20;;;;;;5048326;28;20273;-59
2022/05/30 06:09:41;;;;;;;1.30;1.20;;;15.70;61.20;;;;;;5047281;28;20239;-59
2022/05/30 06:12:12;;;;;;;1.90;1.48;;;15.70;61.10;;;;;;5048191;28;20191;-58
2022/05/30 06:14:43;;;;;;;1.50;1.40;;;15.70;61.10;;;;;;5047074;28;20284;-59
2022/05/30 06:17:15;;;;;;;1.60;1.50;;;15.70;61.10;;;;;;5047168;28;20211;-59
2022/05/30 06:19:47;;;;;;;1.52;1.35;;;15.70;61.10;;;;;;5047578;28;20682;-60
2022/05/30 06:22:20;;;;;;;1.73;1.50;;;15.70;61.10;;;;;;5047267;28;20242;-59
2022/05/30 06:24:51;;;;;;;1.30;1.20;;;15.80;61.10;;;;;;5048708;28;20713;-59
2022/05/30 06:27:21;;;;;;;1.50;1.30;;;15.70;61.00;;;;;;5048782;28;20273;-59
2022/05/30 06:29:52;;;;;;;1.60;1.20;;;15.80;61.20;;;;;;5047991;28;20231;-59
2022/05/30 06:32:25;;;;;;;1.65;1.40;;;15.70;61.20;;;;;;5048549;28;20203;-59
2022/05/30 06:34:56;;;;;;;2.92;1.40;;;15.70;61.30;;;;;;5048220;28;20199;-60
2022/05/30 06:37:27;;;;;;;3.20;1.50;;;15.80;61.40;;;;;;5047844;28;20322;-60
2022/05/30 06:39:57;;;;;;;1.70;1.50;;;15.70;61.30;;;;;;5048065;28;20188;-60
2022/05/30 06:42:28;;;;;;;1.95;1.60;;;15.70;61.30;;;;;;5046662;28;20195;-58
2022/05/30 06:44:59;;;;;;;2.70;1.90;;;15.80;61.50;;;;;;5046895;28;20187;-59
2022/05/30 06:47:31;;;;;;;2.05;1.60;;;15.80;61.60;;;;;;5046894;28;20709;-58
2022/05/30 06:50:01;;;;;;;2.97;1.70;;;15.70;61.60;;;;;;5045944;28;20183;-58
2022/05/30 06:52:32;;;;;;;1.50;1.40;;;15.70;61.50;;;;;;5045570;28;20249;-57
2022/05/30 06:55:02;;;;;;;2.35;1.95;;;15.80;61.60;;;;;;5045804;28;20219;-59
2022/05/30 07:00:20;;;;;;;1.80;1.50;;;15.80;62.50;;;;;;5046524;28;20277;-58
2022/05/30 07:02:53;;;;;;;2.60;1.80;;;15.80;61.60;;;;;;5045907;28;20195;-59
2022/05/30 07:05:24;;;;;;;1.90;1.70;;;15.80;61.60;;;;;;5046337;28;20224;-59
2022/05/30 07:07:56;;;;;;;2.20;2.00;;;15.80;61.50;;;;;;5046277;28;20826;-59
2022/05/30 07:10:27;;;;;;;2.40;1.75;;;15.80;61.50;;;;;;5046637;28;20199;-60
2022/05/30 07:12:58;;;;;;;2.50;1.60;;;15.80;61.40;;;;;;5046431;28;20308;-60
2022/05/30 07:15:30;;;;;;;2.85;2.20;;;15.80;61.40;;;;;;5045761;28;20701;-60
2022/05/30 07:18:08;;;;;;;2.10;1.90;;;15.70;61.30;;;;;;5047447;28;20195;-59
2022/05/30 07:20:38;;;;;;;3.15;2.10;;;15.70;61.30;;;;;;5046475;28;20647;-59
2022/05/30 07:23:10;;;;;;;2.10;1.80;;;15.70;61.40;;;;;;5044256;28;20305;-59
2022/05/30 07:25:42;;;;;;;1.90;1.70;;;15.80;61.40;;;;;;5046488;28;20223;-59
2022/05/30 07:28:13;;;;;;;2.75;1.83;;;15.70;61.40;;;;;;5046519;28;20235;-58
2022/05/30 07:30:44;;;;;;;3.13;2.00;;;15.80;61.50;;;;;;5046243;28;20227;-59
2022/05/30 07:33:16;;;;;;;2.35;1.90;;;15.70;61.40;;;;;;5046229;28;20269;-58
2022/05/30 07:35:47;;;;;;;1.85;1.67;;;15.70;61.40;;;;;;5046547;28;20208;-58
2022/05/30 07:38:17;;;;;;;1.98;1.77;;;15.70;61.40;;;;;;5045827;28;20257;-58
2022/05/30 07:40:48;;;;;;;2.80;1.95;;;15.80;62.30;;;;;;5044264;28;20664;-58
2022/05/30 07:43:21;;;;;;;2.45;1.92;;;15.80;61.40;;;;;;5013820;28;20259;-59
2022/05/30 07:45:52;;;;;;;2.58;1.83;;;15.80;61.30;;;;;;5010840;28;20275;-59
2022/05/30 07:48:26;;;;;;;2.15;1.75;;;15.80;61.30;;;;;;5011012;28;20295;-59
2022/05/30 07:50:58;;;;;;;2.05;1.80;;;15.80;61.30;;;;;;5010769;28;20246;-59
2022/05/30 07:53:30;;;;;;;2.97;1.60;;;15.80;61.30;;;;;;5010713;28;20268;-59
2022/05/30 07:56:01;;;;;;;2.60;1.85;;;15.80;61.30;;;;;;5010634;28;20271;-59
2022/05/30 07:58:31;;;;;;;3.10;1.83;;;15.80;61.30;;;;;;5023787;28;20204;-59
2022/05/30 08:01:02;;;;;;;2.35;1.75;;;15.80;61.30;;;;;;5030747;28;20672;-59
2022/05/30 08:03:34;;;;;;;2.05;1.90;;;15.80;61.20;;;;;;5031690;28;20871;-59
2022/05/30 08:06:08;;;;;;;2.17;1.70;;;15.70;61.20;;;;;;5034006;28;20219;-59
2022/05/30 08:08:39;;;;;;;2.10;1.90;;;15.70;61.20;;;;;;5033885;28;20204;-59
2022/05/30 08:11:09;;;;;;;2.92;1.90;;;15.70;61.20;;;;;;5033940;28;20196;-59
2022/05/30 08:13:40;;;;;;;3.10;1.80;;;15.70;61.10;;;;;;5032085;28;20282;-59
2022/05/30 08:16:11;;;;;;;2.10;1.90;;;15.70;61.10;;;;;;5033585;28;20220;-59
2022/05/30 08:18:43;;;;;;;2.20;1.80;;;15.80;61.20;;;;;;5033802;28;20200;-59
2022/05/30 08:21:14;;;;;;;2.08;1.80;;;15.80;61.20;;;;;;5033913;28;20242;-59
2022/05/30 08:23:44;;;;;;;2.40;1.70;;;15.70;61.10;;;;;;5033266;28;20250;-60
2022/05/30 08:26:15;;;;;;;1.75;1.65;;;15.70;61.10;;;;;;5032725;28;20207;-59
2022/05/30 08:28:46;;;;;;;2.63;1.77;;;15.70;61.10;;;;;;5033155;28;20200;-59
2022/05/30 08:31:17;;;;;;;2.13;1.92;;;15.80;61.10;;;;;;5033381;28;20254;-59
2022/05/30 08:33:49;;;;;;;2.75;1.90;;;15.80;61.00;;;;;;5033767;28;20227;-59
2022/05/30 08:36:20;;;;;;;2.33;2.13;;;15.70;60.90;;;;;;5033373;28;20270;-59
2022/05/30 08:41:46;;;;;;;2.22;2.00;;;15.80;61.00;;;;;;5033359;28;20262;-59
2022/05/30 08:41:48;;;;;;;1.67;1.55;;;15.70;60.90;;;;;;5033183;28;20638;-59
2022/05/30 08:44:19;;;;;;;1.70;1.45;;;15.80;60.80;;;;;;5033212;28;20266;-59
2022/05/30 08:46:57;;;;;;;2.83;2.00;;;15.70;60.80;;;;;;5033409;28;20212;-59
2022/05/30 08:49:35;;;;;;;2.67;2.00;;;15.70;60.80;;;;;;5033598;28;20207;-59
2022/05/30 08:52:27;;;;;;;2.65;2.00;;;15.70;60.80;;;;;;5033358;28;20250;-59
2022/05/30 08:55:16;;;;;;;3.22;2.30;;;15.70;60.90;;;;;;5032749;28;20285;-59
2022/05/30 08:58:10;;;;;;;2.55;2.10;;;15.70;60.80;;;;;;5032386;28;20204;-59
2022/05/30 09:00:49;;;;;;;2.42;2.10;;;15.70;60.80;;;;;;5032763;28;20204;-59
2022/05/30 09:03:23;;;;;;;3.08;2.38;;;15.70;60.90;;;;;;5032727;28;20254;-58
2022/05/30 09:06:02;;;;;;;2.95;2.25;;;15.70;60.90;;;;;;5033418;28;20299;-58
2022/05/30 09:08:38;;;;;;;4.45;2.47;;;15.70;61.80;;;;;;5033205;28;20192;-59
2022/05/30 09:11:16;;;;;;;5.22;2.60;;;15.70;62.80;;;;;;5032956;28;20248;-58
2022/05/30 09:13:50;;;;;;;3.17;2.88;;;15.70;63.10;;;;;;5032239;28;20232;-58
2022/05/30 09:16:31;;;;;;;3.00;2.70;;;15.80;63.40;;;;;;5028942;28;20219;-58
2022/05/30 09:19:03;;;;;;;3.40;2.60;;;15.70;63.30;;;;;;5013192;28;20228;-59
2022/05/30 09:21:37;;;;;;;3.67;2.83;;;15.80;63.20;;;;;;5013205;28;20802;-58
2022/05/30 09:24:08;;;;;;;5.03;2.33;;;15.80;63.10;;;;;;5013188;28;20244;-58
2022/05/30 09:26:41;;;;;;;4.15;2.42;;;15.70;62.90;;;;;;5012819;28;20217;-58
2022/05/30 09:29:20;;;;;;;3.30;2.75;;;15.80;63.00;;;;;;5026547;28;20192;-58
2022/05/30 09:32:00;;;;;;;2.95;2.60;;;15.80;62.80;;;;;;5031516;28;20239;-58
2022/05/30 09:34:40;;;;;;;3.90;2.85;;;15.80;62.70;;;;;;5047947;28;20284;-58
2022/05/30 09:37:27;;;;;;;3.22;2.60;;;15.80;62.70;;;;;;5045131;28;20222;-58
2022/05/30 09:39:58;;;;;;;2.47;2.28;;;15.80;62.60;;;;;;5047984;28;20250;-59
2022/05/30 09:42:34;;;;;;;3.08;2.58;;;15.80;62.50;;;;;;5049520;28;20199;-59
2022/05/30 09:45:12;;;;;;;3.22;2.45;;;15.80;62.40;;;;;;5048443;28;20191;-58
2022/05/30 09:48:04;;;;;;;3.38;2.30;;;15.80;62.40;;;;;;5049232;28;20253;-58
2022/05/30 09:50:42;;;;;;;3.60;2.30;;;15.80;62.40;;;;;;5048024;28;20219;-59
2022/05/30 09:53:15;;;;;;;3.55;2.58;;;15.80;62.30;;;;;;5048891;28;20257;-59
2022/05/30 09:55:50;;;;;;;3.00;2.17;;;15.80;62.20;;;;;;5048756;28;20270;-58
2022/05/30 09:58:40;;;;;;;3.33;2.65;;;15.70;62.10;;;;;;5048181;28;20199;-58
2022/05/30 10:01:11;;;;;;;3.55;2.08;;;15.70;62.10;;;;;;5048704;28;20234;-58
2022/05/30 10:03:44;;;;;;;3.35;2.50;;;15.80;62.10;;;;;;5047845;28;20725;-57
2022/05/30 10:06:17;;;;;;;2.65;2.25;;;15.80;62.00;;;;;;5047850;28;20739;-59
2022/05/30 10:08:50;;;;;;;2.38;2.15;;;15.80;62.00;;;;;;5047547;28;20688;-59
2022/05/30 10:11:32;;;;;;;3.00;2.25;;;15.80;61.90;;;;;;5047802;28;20226;-59
2022/05/30 10:14:18;;;;;;;3.63;2.25;;;15.80;61.80;;;;;;5047714;28;20227;-59
2022/05/30 10:16:49;;;;;;;2.90;2.17;;;15.80;61.80;;;;;;5048339;28;20215;-58
2022/05/30 10:19:28;;;;;;;3.17;2.17;;;15.80;61.80;;;;;;5048332;28;20192;-59
2022/05/30 10:28:17;;;;;;;3.72;2.58;;;15.80;61.70;;;;;;5047217;28;20206;-59
2022/05/30 10:30:56;;;;;;;2.83;2.58;;;15.80;61.60;;;;;;5048404;28;20199;-58
2022/05/30 10:33:39;;;;;;;2.88;2.30;;;15.80;61.60;;;;;;5044760;28;20626;-59
2022/05/30 10:36:21;;;;;;;3.25;2.03;;;15.80;61.70;;;;;;5047437;28;20219;-59
2022/05/30 10:39:02;;;;;;;2.70;2.42;;;15.70;61.70;;;;;;5048340;28;20192;-58
2022/05/30 10:41:41;;;;;;;2.40;2.17;;;15.70;61.70;;;;;;5047437;28;20203;-58
2022/05/30 10:44:20;;;;;;;2.83;2.20;;;15.70;61.70;;;;;;5047601;28;20260;-59
2022/05/30 10:46:59;;;;;;;2.25;2.00;;;15.70;61.70;;;;;;5047296;28;20215;-58
2022/05/30 10:49:35;;;;;;;1.92;1.60;;;15.70;61.60;;;;;;5048157;28;20192;-58
2022/05/30 10:52:09;;;;;;;2.20;2.00;;;15.80;61.70;;;;;;5047649;28;20195;-59
2022/05/30 10:54:44;;;;;;;2.85;2.10;;;15.80;61.60;;;;;;5048437;28;20249;-59
2022/05/30 10:57:25;;;;;;;2.70;2.20;;;15.80;61.50;;;;;;5044395;28;20227;-59
2022/05/30 10:59:59;;;;;;;3.15;2.20;;;15.80;61.60;;;;;;5047782;28;20211;-59
2022/05/30 11:02:32;;;;;;;2.75;2.28;;;15.80;61.60;;;;;;5047757;28;20199;-59
2022/05/30 11:05:08;;;;;;;3.05;2.40;;;15.80;61.60;;;;;;5048052;28;20188;-59
2022/05/30 11:07:49;;;;;;;2.85;2.40;;;15.80;61.60;;;;;;5047237;28;20218;-59
2022/05/30 11:10:33;;;;;;;2.22;1.73;;;15.70;61.50;;;;;;5035919;28;20195;-59
2022/05/30 11:13:16;;;;;;;2.85;2.25;;;15.80;61.50;;;;;;5020900;28;20206;-59
2022/05/30 11:15:51;;;;;;;3.35;2.30;;;15.70;61.50;;;;;;5047550;28;20228;-58
2022/05/30 11:18:30;;;;;;;2.55;1.90;;;15.80;62.00;;;;;;5048312;28;20569;-58
2022/05/30 11:21:09;;;;;;;3.50;2.53;;;15.80;62.40;;;;;;5042628;28;20659;-59
2022/05/30 11:23:40;;;;;;;2.45;1.90;;;15.80;62.40;;;;;;5047587;28;20191;-59
2022/05/30 11:26:47;;;;;;;2.15;1.95;;;15.80;62.30;;;;;;5046456;28;20282;-59
2022/05/30 11:29:34;;;;;;;2.33;1.92;;;15.80;62.30;;;;;;5047683;28;20265;-59
2022/05/30 11:32:11;;;;;;;2.28;1.80;;;15.80;62.10;;;;;;5046175;28;20203;-58
2022/05/30 11:34:59;;;;;;;3.72;2.38;;;15.80;62.00;;;;;;5046769;28;20254;-59
2022/05/30 11:38:00;;;;;;;2.50;2.10;;;15.80;62.00;;;;;;5045020;28;20258;-58
2022/05/30 11:40:38;;;;;;;2.50;2.10;;;15.80;61.90;;;;;;5035534;28;20220;-58
2022/05/30 11:43:36;;;;;;;2.25;2.00;;;15.80;61.80;;;;;;5046170;28;20191;-59
2022/05/30 11:46:17;;;;;;;2.67;2.00;;;15.80;61.70;;;;;;5051316;28;20215;-58
2022/05/30 11:48:59;;;;;;;3.00;2.08;;;15.80;61.70;;;;;;5047658;28;20188;-58
2022/05/30 11:51:45;;;;;;;2.65;1.90;;;15.80;61.70;;;;;;5049427;28;20276;-58
2022/05/30 11:54:31;;;;;;;1.70;1.60;;;15.80;61.70;;;;;;5050603;28;20607;-58
2022/05/30 11:57:14;;;;;;;2.05;1.70;;;15.80;61.60;;;;;;5050456;28;20227;-59
2022/05/30 12:00:01;;;;;;;3.00;2.00;;;15.80;61.60;;;;;;5050262;28;20716;-59
2022/05/30 12:02:50;;;;;;;2.05;1.73;;;15.80;62.30;;;;;;5051692;28;20229;-58
2022/05/30 12:05:59;;;;;;;3.63;2.20;;;15.80;61.50;;;;;;5049746;28;20242;-59
2022/05/30 12:09:16;;;;;;;2.25;2.05;;;15.80;61.60;;;;;;5047361;28;20772;-59
2022/05/30 12:12:18;;;;;;;2.47;2.13;;;15.80;61.60;;;;;;4969638;28;20674;-58
2022/05/30 12:15:27;;;;;;;2.10;1.90;;;15.80;61.50;;;;;;5050677;28;20296;-59
2022/05/30 12:24:34;;;;;;;2.15;1.90;;;15.80;61.50;;;;;;5050656;28;20199;-59
2022/05/30 12:27:29;;;;;;;2.30;1.60;;;15.80;61.50;;;;;;5046081;28;20268;-59
2022/05/30 12:30:00;;;;;;;2.05;1.85;;;15.80;61.40;;;;;;5047532;28;20203;-59
2022/05/30 12:32:38;;;;;;;2.33;1.70;;;15.80;61.40;;;;;;5049009;28;20204;-59
2022/05/30 12:35:29;;;;;;;1.70;1.55;;;15.80;61.40;;;;;;5050381;28;20284;-59
2022/05/30 12:38:25;;;;;;;3.08;2.15;;;15.80;61.40;;;;;;5037978;28;20195;-59
2022/05/30 12:41:20;;;;;;;1.88;1.55;;;15.80;61.40;;;;;;5049678;28;20187;-59
2022/05/30 12:43:51;;;;;;;2.75;1.70;;;15.80;61.30;;;;;;5049965;28;20192;-58
2022/05/30 12:46:26;;;;;;;2.10;1.70;;;15.80;61.30;;;;;;5048737;28;20215;-58
2022/05/30 12:49:17;;;;;;;2.20;1.90;;;15.80;61.40;;;;;;5048955;28;20242;-58
2022/05/30 12:52:17;;;;;;;1.85;1.75;;;15.80;61.40;;;;;;5045761;28;20289;-59
2022/05/30 12:55:03;;;;;;;2.05;1.85;;;15.80;61.30;;;;;;5049316;28;20223;-59
2022/05/30 12:57:44;;;;;;;1.70;1.60;;;15.80;61.30;;;;;;5049854;28;20215;-59
2022/05/30 13:00:47;;;;;;;1.63;1.52;;;15.80;61.70;;;;;;5034770;28;20196;-59
2022/05/30 13:03:44;;;;;;;2.15;1.77;;;15.80;61.40;;;;;;5033334;28;20195;-59
2022/05/30 13:06:23;;;;;;;1.80;1.70;;;15.80;61.40;;;;;;5030785;28;20702;-59
2022/05/30 13:09:18;;;;;;;1.90;1.75;;;15.80;61.30;;;;;;5031391;28;20290;-59
2022/05/30 13:12:19;;;;;;;1.70;1.60;;;15.80;61.30;;;;;;5031844;28;20215;-59
2022/05/30 13:15:21;;;;;;;1.70;1.60;;;15.80;61.20;;;;;;5031072;28;20310;-59
2022/05/30 13:18:03;;;;;;;2.22;2.00;;;15.80;61.20;;;;;;5026068;28;20195;-59
2022/05/30 13:20:47;;;;;;;2.38;1.75;;;15.80;61.10;;;;;;5031359;28;20200;-59
2022/05/30 13:23:18;;;;;;;2.20;2.00;;;15.80;61.10;;;;;;5031550;28;20295;-58
2022/05/30 13:25:51;;;;;;;2.05;1.85;;;15.80;61.10;;;;;;5031504;28;20251;-59
2022/05/30 13:28:24;;;;;;;2.10;1.80;;;15.80;61.10;;;;;;5031296;28;20768;-59
2022/05/30 13:30:57;;;;;;;1.92;1.75;;;15.80;61.20;;;;;;5024441;28;20243;-58
2022/05/30 13:33:30;;;;;;;1.70;1.60;;;15.80;61.10;;;;;;5011974;28;20193;-58
2022/05/30 13:36:02;;;;;;;2.22;1.90;;;15.80;61.10;;;;;;5011395;28;20224;-58
2022/05/30 13:38:39;;;;;;;1.65;1.52;;;15.80;61.10;;;;;;5011454;28;20225;-59
2022/05/30 13:41:25;;;;;;;1.95;1.83;;;15.80;61.20;;;;;;5011306;28;20200;-58
2022/05/30 13:43:57;;;;;;;2.33;1.98;;;15.80;61.20;;;;;;5012101;28;20259;-58
2022/05/30 13:46:30;;;;;;;3.25;1.67;;;15.80;61.20;;;;;;5030950;28;20722;-58
2022/05/30 13:49:01;;;;;;;1.90;1.67;;;15.80;61.20;;;;;;5030843;28;20193;-59
2022/05/30 13:51:34;;;;;;;1.65;1.50;;;15.80;61.30;;;;;;5030947;28;20672;-58